createdAt,value
2022-12-08T00:02:11.477Z,100169.75
2022-12-08T00:07:31.948Z,100157.22
2022-12-08T00:12:33.384Z,100154.72
2022-12-08T00:17:34.849Z,100153.03
2022-12-08T00:22:36.265Z,100154.69
2022-12-08T00:27:37.719Z,100147.19
2022-12-08T00:32:39.152Z,100135.44
2022-12-08T00:37:40.644Z,100130.41
2022-12-08T00:42:42.141Z,100134.59
2022-12-08T00:47:43.621Z,100131.28
2022-12-08T00:52:45.082Z,100114.53
2022-12-08T00:57:46.519Z,100108.69
2022-12-08T01:02:48.042Z,100101.97
2022-12-08T01:07:49.622Z,100101.97
2022-12-08T01:12:51.143Z,100100.31
2022-12-08T01:17:52.566Z,100097.81
2022-12-08T01:22:54.034Z,100103.69
2022-12-08T01:27:55.498Z,100102.81
2022-12-08T01:32:57.473Z,100102.81
2022-12-08T01:37:58.923Z,100105.34
2022-12-08T01:43:00.374Z,100103.66
2022-12-08T01:48:09.084Z,100106.19
2022-12-08T01:53:23.332Z,100099.47
2022-12-08T01:58:36.178Z,100097.81
2022-12-08T02:03:50.026Z,100087.78
2022-12-08T02:08:52.159Z,100087.75
2022-12-08T02:13:54.804Z,100081.91
2022-12-08T02:19:34.505Z,100078.59
2022-12-08T02:24:47.248Z,100069.38
2022-12-08T02:30:10.327Z,100069.38
2022-12-08T02:35:19.130Z,100062.66
2022-12-08T02:40:59.116Z,100059.31
2022-12-08T02:46:09.285Z,100050.97
2022-12-08T02:51:10.769Z,100055.13
2022-12-08T02:56:43.662Z,100040.91
2022-12-08T03:02:08.757Z,100031.69
2022-12-08T03:07:21.122Z,100025.78
2022-12-08T03:12:56.234Z,100019.91
2022-12-08T03:17:59.477Z,99999.75
2022-12-08T03:23:05.545Z,100000.56
2022-12-08T03:28:07.265Z,100006.44
2022-12-08T03:33:33.002Z,99998.06
2022-12-08T03:38:43.689Z,99992.22
2022-12-08T03:43:49.158Z,99996.47
2022-12-08T03:48:51.443Z,99998.97
2022-12-08T03:53:52.973Z,99986.38
2022-12-08T03:58:55.397Z,99976.31
2022-12-08T04:03:56.854Z,99967.09
2022-12-08T04:08:58.352Z,99957.84
2022-12-08T04:13:59.796Z,99957.00
2022-12-08T04:19:01.852Z,99961.22
2022-12-08T04:24:03.521Z,99954.56
2022-12-08T04:29:06.270Z,99957.13
2022-12-08T04:34:08.023Z,99947.94
2022-12-08T04:39:09.451Z,99947.16
2022-12-08T04:44:10.868Z,99953.03
2022-12-08T04:49:12.344Z,99950.56
2022-12-08T04:54:13.892Z,99948.06
2022-12-08T04:59:15.386Z,99937.22
2022-12-08T05:04:16.839Z,99942.25
2022-12-08T05:09:18.432Z,99944.78
2022-12-08T05:14:20.059Z,99957.31
2022-12-08T05:19:21.614Z,99952.28
2022-12-08T05:24:23.185Z,99951.44
2022-12-08T05:29:24.978Z,99950.63
2022-12-08T05:34:26.511Z,99953.97
2022-12-08T05:39:28.086Z,99947.28
2022-12-08T05:44:29.620Z,99943.94
2022-12-08T05:49:31.148Z,99938.94
2022-12-08T05:54:32.680Z,99939.75
2022-12-08T05:59:34.105Z,99942.25
2022-12-08T06:04:36.068Z,99942.25
2022-12-08T06:09:37.568Z,99946.44
2022-12-08T06:14:39.752Z,99945.63
2022-12-08T06:19:41.217Z,99941.44
2022-12-08T06:24:42.670Z,99936.41
2022-12-08T06:29:44.100Z,99947.28
2022-12-08T06:34:45.560Z,99943.09
2022-12-08T06:39:47.010Z,99947.28
2022-12-08T06:44:48.538Z,99946.44
2022-12-08T06:49:50.014Z,99942.25
2022-12-08T06:54:51.478Z,99948.97
2022-12-08T06:59:52.936Z,99947.31
2022-12-08T07:04:54.383Z,99953.97
2022-12-08T07:09:55.879Z,99945.59
2022-12-08T07:14:57.335Z,99952.25
2022-12-08T07:19:58.817Z,99951.41
2022-12-08T07:25:00.294Z,99954.75
2022-12-08T07:30:01.852Z,99958.09
2022-12-08T07:35:04.227Z,99959.78
2022-12-08T07:40:07.592Z,99967.31
2022-12-08T07:45:09.732Z,99959.81
2022-12-08T07:50:11.294Z,99956.47
2022-12-08T07:55:12.742Z,99945.56
2022-12-08T08:00:15.554Z,99934.66
2022-12-08T08:05:17.040Z,99932.94
2022-12-08T08:10:20.430Z,99936.31
2022-12-08T08:15:22.020Z,99927.13
2022-12-08T08:20:23.453Z,99927.09
2022-12-08T08:25:24.910Z,99919.56
2022-12-08T08:30:26.433Z,99915.34
2022-12-08T08:35:27.961Z,99925.34
2022-12-08T08:40:29.400Z,99927.81
2022-12-08T08:45:31.410Z,99926.09
2022-12-08T08:50:37.319Z,99925.19
2022-12-08T08:55:39.691Z,99915.91
2022-12-08T09:00:41.171Z,99916.63
2022-12-08T09:05:42.751Z,99913.13
2022-12-08T09:10:44.265Z,99912.09
2022-12-08T09:15:45.839Z,99909.38
2022-12-08T09:20:47.369Z,99899.94
2022-12-08T09:25:48.840Z,99898.06
2022-12-08T09:30:51.399Z,99903.69
2022-12-08T09:35:52.921Z,99907.50
2022-12-08T09:40:54.954Z,99899.59
2022-12-08T09:45:56.932Z,99899.13
2022-12-08T09:50:58.470Z,99885.41
2022-12-08T09:56:19.022Z,99881.72
2022-12-08T10:01:21.546Z,99873.03
2022-12-08T10:06:47.101Z,99863.13
2022-12-08T10:11:55.738Z,99848.66
2022-12-08T10:17:20.039Z,99840.09
2022-12-08T10:22:24.500Z,99836.78
2022-12-08T10:27:26.765Z,99825.13
2022-12-08T10:32:34.827Z,99826.41
2022-12-08T10:37:36.302Z,99818.69
2022-12-08T10:42:41.804Z,99817.72
2022-12-08T10:47:52.336Z,99808.56
2022-12-08T10:53:08.611Z,99810.91
2022-12-08T10:58:43.336Z,99800.19
2022-12-08T11:03:51.570Z,99791.94
2022-12-08T11:08:55.413Z,99792.97
2022-12-08T11:13:56.869Z,99791.56
2022-12-08T11:18:58.706Z,99784.00
2022-12-08T11:24:18.628Z,99780.41
2022-12-08T11:29:20.489Z,99775.97
2022-12-08T11:34:40.750Z,99767.78
2022-12-08T11:39:48.494Z,99766.06
2022-12-08T11:45:04.025Z,99770.53
2022-12-08T11:50:31.584Z,99755.66
2022-12-08T11:55:49.679Z,99748.06
2022-12-08T12:00:51.550Z,99747.41
2022-12-08T12:06:37.649Z,99740.84
2022-12-08T12:12:13.218Z,99730.81
2022-12-08T12:17:32.451Z,99729.66
2022-12-08T12:22:37.461Z,99725.94
2022-12-08T12:27:40.337Z,99723.56
2022-12-08T12:32:47.306Z,99729.47
2022-12-08T12:37:48.945Z,99716.84
2022-12-08T12:42:56.209Z,99713.13
2022-12-08T12:48:00.444Z,99707.00
2022-12-08T12:53:18.137Z,99706.16
2022-12-08T12:58:30.204Z,99695.63
2022-12-08T13:03:31.719Z,99695.22
2022-12-08T13:08:33.742Z,99695.81
2022-12-08T13:13:55.007Z,99697.56
2022-12-08T13:18:59.026Z,99699.41
2022-12-08T13:24:29.088Z,99695.53
2022-12-08T13:29:39.994Z,99693.25
2022-12-08T13:34:59.141Z,99694.25
2022-12-08T13:40:00.572Z,99691.16
2022-12-08T14:01:25.060Z,99689.13
2022-12-08T14:06:36.210Z,99684.06
2022-12-08T14:11:44.788Z,99687.38
2022-12-08T14:16:53.598Z,99690.72
2022-12-08T14:22:09.248Z,99679.81
2022-12-08T14:27:15.228Z,99687.38
2022-12-08T14:32:34.076Z,99688.28
2022-12-08T14:37:44.529Z,99689.22
2022-12-08T14:42:53.872Z,99686.72
2022-12-08T14:47:55.544Z,99684.34
2022-12-08T14:52:57.033Z,99678.72
2022-12-08T14:57:58.656Z,99683.06
2022-12-08T15:03:06.605Z,99684.72
2022-12-08T15:08:12.911Z,99680.59
2022-12-08T15:13:16.311Z,99676.47
2022-12-08T15:18:36.253Z,99674.03
2022-12-08T15:23:44.809Z,99675.03
2022-12-08T15:28:46.253Z,99670.97
2022-12-08T15:33:48.142Z,99675.25
2022-12-08T15:38:49.620Z,99676.13
2022-12-08T15:43:51.046Z,99672.78
2022-12-08T15:48:57.765Z,99664.41
2022-12-08T15:53:59.612Z,99656.91
2022-12-08T15:59:01.099Z,99663.00
2022-12-08T16:09:33.283Z,99659.22
2022-12-08T16:19:57.439Z,99656.97
2022-12-08T16:25:14.709Z,99649.50
2022-12-08T16:30:20.303Z,99641.13
2022-12-08T16:35:21.753Z,99638.56
2022-12-08T16:40:23.350Z,99631.06
2022-12-08T16:45:29.724Z,99634.44
2022-12-08T16:50:33.721Z,99630.19
2022-12-08T16:55:35.574Z,99626.00
2022-12-08T17:00:37.529Z,99621.88
2022-12-08T17:05:41.100Z,99629.50
2022-12-08T17:10:42.677Z,99626.13
2022-12-08T17:15:44.113Z,99619.31
2022-12-08T17:20:45.544Z,99612.59
2022-12-08T17:25:58.252Z,99621.84
2022-12-08T17:31:00.366Z,99620.16
2022-12-08T17:36:01.835Z,99624.34
2022-12-08T17:41:05.110Z,99619.47
2022-12-08T17:46:06.739Z,99615.28
2022-12-08T17:51:09.586Z,99618.59
2022-12-08T17:56:20.276Z,99616.06
2022-12-08T18:01:23.038Z,99619.53
2022-12-08T18:06:28.139Z,99624.59
2022-12-08T18:11:33.893Z,99622.97
2022-12-08T18:16:38.053Z,99626.50
2022-12-08T18:21:40.615Z,99619.31
2022-12-08T18:26:45.673Z,99622.00
2022-12-08T18:31:47.319Z,99625.53
2022-12-08T18:36:49.011Z,99618.00
2022-12-08T18:41:51.471Z,99613.72
2022-12-08T18:46:52.993Z,99607.75
2022-12-08T18:51:54.454Z,99600.00
2022-12-08T18:56:55.948Z,99605.78
2022-12-08T19:01:57.869Z,99598.16
2022-12-08T19:06:59.354Z,99598.88
2022-12-08T19:12:00.794Z,99604.72
2022-12-08T19:17:02.247Z,99611.41
2022-12-08T19:22:03.781Z,99606.34
2022-12-08T19:27:06.004Z,99608.91
2022-12-08T19:32:07.424Z,99603.03
2022-12-08T19:37:12.420Z,99592.94
2022-12-08T19:42:34.279Z,99590.50
2022-12-08T19:47:35.794Z,99580.53
2022-12-08T19:52:37.288Z,99586.69
2022-12-08T19:57:38.826Z,99591.06
2022-12-08T20:02:40.551Z,99589.50
2022-12-08T20:07:42.813Z,99582.00
2022-12-08T20:12:44.523Z,99581.22
2022-12-08T20:17:45.936Z,99579.59
2022-12-08T20:22:49.801Z,99593.00
2022-12-08T20:27:51.368Z,99587.16
2022-12-08T20:32:52.836Z,99589.81
2022-12-08T20:37:54.374Z,99584.91
2022-12-08T20:42:55.822Z,99586.59
2022-12-08T20:47:57.284Z,99572.38
2022-12-08T20:52:59.059Z,99585.06
2022-12-08T20:58:00.804Z,99591.09
2022-12-08T21:03:02.349Z,99582.91
2022-12-08T21:08:04.256Z,99581.41
2022-12-08T21:13:07.304Z,99586.63
2022-12-08T21:18:08.950Z,99582.66
2022-12-08T21:23:10.742Z,99578.66
2022-12-08T21:28:12.761Z,99578.81
2022-12-08T21:33:14.569Z,99581.41
2022-12-08T21:38:16.465Z,99579.81
2022-12-08T21:43:18.074Z,99582.38
2022-12-08T21:48:19.646Z,99579.94
2022-12-08T21:53:22.777Z,99577.59
2022-12-08T21:58:24.452Z,99581.88
2022-12-08T22:03:26.773Z,99581.16
2022-12-08T22:08:28.652Z,99585.41
2022-12-08T22:13:30.644Z,99584.63
2022-12-08T22:18:33.409Z,99592.19
2022-12-08T22:23:35.086Z,99596.44
2022-12-08T22:28:40.777Z,99586.44
2022-12-08T22:33:43.004Z,99579.78
2022-12-08T22:38:44.825Z,99577.31
2022-12-08T22:43:47.468Z,99574.84
2022-12-08T22:48:50.141Z,99570.72
2022-12-08T22:53:51.727Z,99565.72
2022-12-08T22:58:53.322Z,99558.25
2022-12-08T23:03:55.176Z,99559.09
2022-12-08T23:08:58.100Z,99553.28
2022-12-08T23:14:00.542Z,99549.97
2022-12-08T23:19:02.274Z,99549.97
2022-12-08T23:24:04.515Z,99542.47
2022-12-08T23:29:06.242Z,99536.66
2022-12-08T23:34:07.708Z,99524.16
2022-12-08T23:39:10.781Z,99519.16
2022-12-08T23:44:12.449Z,99520.84
2022-12-08T23:49:14.740Z,99501.66
2022-12-08T23:54:16.983Z,99499.16
2022-12-08T23:59:18.727Z,99500.00
